sensor_id;sensor_type;location;lat;lon;timestamp;pressure;altitude;pressure_sealevel;temperature;humidity
65718;BME280;52445;52.466;-1.016;2023-04-08T00:01:02;100931.16;;;7.05;61.19
65718;BME280;52445;52.466;-1.016;2023-04-08T00:03:29;100929.38;;;7.03;60.69
65718;BME280;52445;52.466;-1.016;2023-04-08T00:05:56;100933.53;;;6.98;61.59
65718;BME280;52445;52.466;-1.016;2023-04-08T00:08:22;100941.25;;;6.96;60.80
65718;BME280;52445;52.466;-1.016;2023-04-08T00:10:49;100940.34;;;6.96;61.47
65718;BME280;52445;52.466;-1.016;2023-04-08T00:13:16;100929.97;;;6.92;60.43
65718;BME280;52445;52.466;-1.016;2023-04-08T00:15:43;100931.66;;;6.90;61.44
65718;BME280;52445;52.466;-1.016;2023-04-08T00:18:09;100936.72;;;6.87;61.30
65718;BME280;52445;52.466;-1.016;2023-04-08T00:20:37;100940.09;;;6.86;60.73
65718;BME280;52445;52.466;-1.016;2023-04-08T00:23:05;100936.63;;;6.84;62.10
65718;BME280;52445;52.466;-1.016;2023-04-08T00:25:33;100924.50;;;6.80;60.62
65718;BME280;52445;52.466;-1.016;2023-04-08T00:28:01;100929.59;;;6.78;61.44
65718;BME280;52445;52.466;-1.016;2023-04-08T00:30:30;100925.25;;;6.76;61.16
65718;BME280;52445;52.466;-1.016;2023-04-08T00:32:59;100926.00;;;6.72;60.95
65718;BME280;52445;52.466;-1.016;2023-04-08T00:35:28;100932.78;;;6.69;61.51
65718;BME280;52445;52.466;-1.016;2023-04-08T00:37:57;100927.56;;;6.66;62.16
65718;BME280;52445;52.466;-1.016;2023-04-08T00:40:25;100927.50;;;6.63;61.27
65718;BME280;52445;52.466;-1.016;2023-04-08T00:42:56;100925.72;;;6.62;61.93
65718;BME280;52445;52.466;-1.016;2023-04-08T00:45:25;100932.50;;;6.59;61.29
65718;BME280;52445;52.466;-1.016;2023-04-08T00:47:54;100932.41;;;6.55;61.53
65718;BME280;52445;52.466;-1.016;2023-04-08T00:50:23;100928.91;;;6.52;60.80
65718;BME280;52445;52.466;-1.016;2023-04-08T00:52:52;100930.50;;;6.48;61.84
65718;BME280;52445;52.466;-1.016;2023-04-08T00:55:20;100922.69;;;6.45;62.03
65718;BME280;52445;52.466;-1.016;2023-04-08T00:57:48;100932.03;;;6.41;61.59
65718;BME280;52445;52.466;-1.016;2023-04-08T01:00:15;100928.53;;;6.39;62.18
65718;BME280;52445;52.466;-1.016;2023-04-08T01:02:53;100928.47;;;6.36;62.67
65718;BME280;52445;52.466;-1.016;2023-04-08T01:08:02;100924.84;;;6.31;61.86
65718;BME280;52445;52.466;-1.016;2023-04-08T01:10:33;100935.06;;;6.28;61.76
65718;BME280;52445;52.466;-1.016;2023-04-08T01:13:07;100933.28;;;6.25;62.74
65718;BME280;52445;52.466;-1.016;2023-04-08T01:15:36;100935.72;;;6.21;61.93
65718;BME280;52445;52.466;-1.016;2023-04-08T01:18:08;100933.91;;;6.16;62.80
65718;BME280;52445;52.466;-1.016;2023-04-08T01:20:36;100935.47;;;6.13;62.67
65718;BME280;52445;52.466;-1.016;2023-04-08T01:25:45;100937.06;;;6.08;62.83
65718;BME280;52445;52.466;-1.016;2023-04-08T01:28:15;100937.00;;;6.06;62.94
65718;BME280;52445;52.466;-1.016;2023-04-08T01:30:43;100935.28;;;6.05;62.00
65718;BME280;52445;52.466;-1.016;2023-04-08T01:33:13;100931.69;;;6.01;63.24
65718;BME280;52445;52.466;-1.016;2023-04-08T01:35:40;100939.41;;;6.01;62.43
65718;BME280;52445;52.466;-1.016;2023-04-08T01:38:09;100937.59;;;5.99;62.43
65718;BME280;52445;52.466;-1.016;2023-04-08T01:40:38;100930.72;;;5.98;63.24
65718;BME280;52445;52.466;-1.016;2023-04-08T01:43:07;100937.50;;;5.96;62.80
65718;BME280;52445;52.466;-1.016;2023-04-08T01:45:34;100933.16;;;5.93;63.43
65718;BME280;52445;52.466;-1.016;2023-04-08T01:48:01;100940.81;;;5.91;63.09
65718;BME280;52445;52.466;-1.016;2023-04-08T01:50:29;100943.28;;;5.88;63.54
65718;BME280;52445;52.466;-1.016;2023-04-08T01:52:58;100936.34;;;5.86;62.32
65718;BME280;52445;52.466;-1.016;2023-04-08T01:55:25;100936.25;;;5.83;62.69
65718;BME280;52445;52.466;-1.016;2023-04-08T01:57:55;100939.56;;;5.78;63.73
65718;BME280;52445;52.466;-1.016;2023-04-08T02:00:27;100943.75;;;5.75;62.49
65718;BME280;52445;52.466;-1.016;2023-04-08T02:02:55;100953.91;;;5.72;63.15
65718;BME280;52445;52.466;-1.016;2023-04-08T02:05:23;100949.50;;;5.68;62.85
65718;BME280;52445;52.466;-1.016;2023-04-08T02:07:49;100951.91;;;5.63;63.21
65718;BME280;52445;52.466;-1.016;2023-04-08T02:10:17;100954.44;;;5.61;63.08
65718;BME280;52445;52.466;-1.016;2023-04-08T02:12:44;100947.41;;;5.56;62.44
65718;BME280;52445;52.466;-1.016;2023-04-08T02:15:12;100947.34;;;5.52;63.56
65718;BME280;52445;52.466;-1.016;2023-04-08T02:17:45;100950.63;;;5.48;63.15
65718;BME280;52445;52.466;-1.016;2023-04-08T02:20:17;100954.78;;;5.45;62.71
65718;BME280;52445;52.466;-1.016;2023-04-08T02:22:56;100952.03;;;5.40;63.79
65718;BME280;52445;52.466;-1.016;2023-04-08T02:25:24;100958.84;;;5.38;62.95
65718;BME280;52445;52.466;-1.016;2023-04-08T02:27:53;100956.09;;;5.33;62.91
65718;BME280;52445;52.466;-1.016;2023-04-08T02:30:22;100958.56;;;5.30;63.81
65718;BME280;52445;52.466;-1.016;2023-04-08T02:32:52;100960.94;;;5.24;63.15
65718;BME280;52445;52.466;-1.016;2023-04-08T02:35:19;100951.41;;;5.20;63.40
65718;BME280;52445;52.466;-1.016;2023-04-08T02:37:46;100954.63;;;5.14;63.14
65718;BME280;52445;52.466;-1.016;2023-04-08T02:40:23;100957.03;;;5.09;64.03
65718;BME280;52445;52.466;-1.016;2023-04-08T02:42:50;100962.94;;;5.07;63.45
65718;BME280;52445;52.466;-1.016;2023-04-08T02:45:17;100961.94;;;5.03;63.24
65718;BME280;52445;52.466;-1.016;2023-04-08T02:47:44;100963.59;;;5.01;63.33
65718;BME280;52445;52.466;-1.016;2023-04-08T02:50:11;100964.38;;;4.98;63.88
65718;BME280;52445;52.466;-1.016;2023-04-08T02:52:37;100965.16;;;4.96;64.12
65718;BME280;52445;52.466;-1.016;2023-04-08T02:55:05;100971.91;;;4.94;63.63
65718;BME280;52445;52.466;-1.016;2023-04-08T02:57:35;100972.66;;;4.91;63.74
65718;BME280;52445;52.466;-1.016;2023-04-08T03:00:03;100969.22;;;4.91;64.21
65718;BME280;52445;52.466;-1.016;2023-04-08T03:02:30;100974.25;;;4.87;63.79
65718;BME280;52445;52.466;-1.016;2023-04-08T03:04:57;100974.16;;;4.84;64.19
65718;BME280;52445;52.466;-1.016;2023-04-08T03:07:24;100972.31;;;4.82;63.61
65718;BME280;52445;52.466;-1.016;2023-04-08T03:09:51;100977.38;;;4.79;64.20
65718;BME280;52445;52.466;-1.016;2023-04-08T03:12:18;100976.38;;;4.75;64.41
65718;BME280;52445;52.466;-1.016;2023-04-08T03:14:44;100974.63;;;4.74;63.89
65718;BME280;52445;52.466;-1.016;2023-04-08T03:17:11;100979.66;;;4.71;64.50
65718;BME280;52445;52.466;-1.016;2023-04-08T03:19:37;100982.16;;;4.69;64.31
65718;BME280;52445;52.466;-1.016;2023-04-08T03:22:04;100983.81;;;4.67;64.14
65718;BME280;52445;52.466;-1.016;2023-04-08T03:24:31;100981.19;;;4.66;64.16
65718;BME280;52445;52.466;-1.016;2023-04-08T03:26:57;100979.38;;;4.63;64.05
65718;BME280;52445;52.466;-1.016;2023-04-08T03:29:24;100989.59;;;4.61;63.55
65718;BME280;52445;52.466;-1.016;2023-04-08T03:31:50;100986.97;;;4.60;64.64
65718;BME280;52445;52.466;-1.016;2023-04-08T03:34:17;100990.25;;;4.56;64.41
65718;BME280;52445;52.466;-1.016;2023-04-08T03:36:44;100990.19;;;4.54;64.72
65718;BME280;52445;52.466;-1.016;2023-04-08T03:39:10;100988.31;;;4.50;64.73
65718;BME280;52445;52.466;-1.016;2023-04-08T03:41:37;100989.03;;;4.46;64.90
65718;BME280;52445;52.466;-1.016;2023-04-08T03:44:03;100992.38;;;4.45;64.89
65718;BME280;52445;52.466;-1.016;2023-04-08T03:46:30;100999.97;;;4.42;65.09
65718;BME280;52445;52.466;-1.016;2023-04-08T03:48:57;100993.91;;;4.40;64.93
65718;BME280;52445;52.466;-1.016;2023-04-08T03:51:23;100985.28;;;4.37;64.80
65718;BME280;52445;52.466;-1.016;2023-04-08T03:53:50;100987.75;;;4.34;64.80
65718;BME280;52445;52.466;-1.016;2023-04-08T03:56:17;100994.50;;;4.32;64.84
65718;BME280;52445;52.466;-1.016;2023-04-08T03:58:43;101000.44;;;4.31;65.01
65718;BME280;52445;52.466;-1.016;2023-04-08T04:01:10;100998.56;;;4.27;64.96
65718;BME280;52445;52.466;-1.016;2023-04-08T04:03:36;100998.56;;;4.27;65.12
65718;BME280;52445;52.466;-1.016;2023-04-08T04:06:03;100995.88;;;4.24;64.90
65718;BME280;52445;52.466;-1.016;2023-04-08T04:08:30;100993.25;;;4.22;64.90
65718;BME280;52445;52.466;-1.016;2023-04-08T04:10:58;100995.75;;;4.21;65.14
65718;BME280;52445;52.466;-1.016;2023-04-08T04:13:24;100994.84;;;4.19;64.84
65718;BME280;52445;52.466;-1.016;2023-04-08T04:15:51;101004.97;;;4.16;65.18
65718;BME280;52445;52.466;-1.016;2023-04-08T04:18:18;101006.59;;;4.14;65.11
65718;BME280;52445;52.466;-1.016;2023-04-08T04:20:44;101009.97;;;4.13;65.18
65718;BME280;52445;52.466;-1.016;2023-04-08T04:23:11;101013.38;;;4.11;65.44
65718;BME280;52445;52.466;-1.016;2023-04-08T04:25:40;101017.59;;;4.11;65.30
65718;BME280;52445;52.466;-1.016;2023-04-08T04:28:07;101016.75;;;4.10;65.14
65718;BME280;52445;52.466;-1.016;2023-04-08T04:30:36;101010.66;;;4.08;65.11
65718;BME280;52445;52.466;-1.016;2023-04-08T04:33:04;101019.97;;;4.06;65.35
65718;BME280;52445;52.466;-1.016;2023-04-08T04:35:31;101014.75;;;4.03;65.14
65718;BME280;52445;52.466;-1.016;2023-04-08T04:37:58;101023.22;;;4.02;65.84
65718;BME280;52445;52.466;-1.016;2023-04-08T04:40:25;101020.66;;;4.01;65.77
65718;BME280;52445;52.466;-1.016;2023-04-08T04:42:52;101022.19;;;3.97;65.86
65718;BME280;52445;52.466;-1.016;2023-04-08T04:45:18;101028.13;;;3.96;65.27
65718;BME280;52445;52.466;-1.016;2023-04-08T04:47:45;101029.75;;;3.94;65.21
65718;BME280;52445;52.466;-1.016;2023-04-08T04:50:12;101030.50;;;3.91;65.88
65718;BME280;52445;52.466;-1.016;2023-04-08T04:52:38;101031.25;;;3.89;65.68
65718;BME280;52445;52.466;-1.016;2023-04-08T04:55:07;101034.50;;;3.84;65.32
65718;BME280;52445;52.466;-1.016;2023-04-08T04:57:33;101041.25;;;3.82;65.92
65718;BME280;52445;52.466;-1.016;2023-04-08T05:00:00;101046.28;;;3.79;65.64
65718;BME280;52445;52.466;-1.016;2023-04-08T05:02:30;101047.88;;;3.77;65.68
65718;BME280;52445;52.466;-1.016;2023-04-08T05:04:57;101048.72;;;3.76;65.52
65718;BME280;52445;52.466;-1.016;2023-04-08T05:07:24;101046.06;;;3.75;65.69
65718;BME280;52445;52.466;-1.016;2023-04-08T05:09:51;101053.69;;;3.73;65.89
65718;BME280;52445;52.466;-1.016;2023-04-08T05:12:18;101052.75;;;3.71;65.93
65718;BME280;52445;52.466;-1.016;2023-04-08T05:14:46;101045.88;;;3.70;65.76
65718;BME280;52445;52.466;-1.016;2023-04-08T05:17:12;101047.53;;;3.68;65.89
65718;BME280;52445;52.466;-1.016;2023-04-08T05:19:39;101056.00;;;3.67;66.16
65718;BME280;52445;52.466;-1.016;2023-04-08T05:22:05;101056.00;;;3.67;65.39
65718;BME280;52445;52.466;-1.016;2023-04-08T05:24:32;101061.00;;;3.64;65.57
65718;BME280;52445;52.466;-1.016;2023-04-08T05:26:59;101062.63;;;3.62;66.01
65718;BME280;52445;52.466;-1.016;2023-04-08T05:29:26;101063.44;;;3.60;65.58
65718;BME280;52445;52.466;-1.016;2023-04-08T05:31:53;101060.00;;;3.60;66.46
65718;BME280;52445;52.466;-1.016;2023-04-08T05:34:19;101071.13;;;3.60;65.79
65718;BME280;52445;52.466;-1.016;2023-04-08T05:36:49;101069.34;;;3.59;65.83
65718;BME280;52445;52.466;-1.016;2023-04-08T05:39:19;101065.72;;;3.54;67.10
65718;BME280;52445;52.466;-1.016;2023-04-08T05:41:45;101059.09;;;3.59;66.77
65718;BME280;52445;52.466;-1.016;2023-04-08T05:44:12;101069.50;;;3.63;66.16
65718;BME280;52445;52.466;-1.016;2023-04-08T05:46:39;101073.00;;;3.65;66.28
65718;BME280;52445;52.466;-1.016;2023-04-08T05:49:06;101076.50;;;3.67;66.31
65718;BME280;52445;52.466;-1.016;2023-04-08T05:51:32;101077.44;;;3.69;66.75
65718;BME280;52445;52.466;-1.016;2023-04-08T05:53:59;101073.25;;;3.71;66.20
65718;BME280;52445;52.466;-1.016;2023-04-08T05:56:26;101080.22;;;3.73;66.93
65718;BME280;52445;52.466;-1.016;2023-04-08T05:58:52;101082.03;;;3.76;66.46
65718;BME280;52445;52.466;-1.016;2023-04-08T06:01:19;101082.16;;;3.79;67.04
65718;BME280;52445;52.466;-1.016;2023-04-08T06:03:46;101094.28;;;3.83;66.85
65718;BME280;52445;52.466;-1.016;2023-04-08T06:06:13;101098.72;;;3.88;67.07
65718;BME280;52445;52.466;-1.016;2023-04-08T06:08:39;101104.03;;;3.92;66.86
65718;BME280;52445;52.466;-1.016;2023-04-08T06:11:06;101097.22;;;3.93;66.68
65718;BME280;52445;52.466;-1.016;2023-04-08T06:13:33;101103.31;;;3.95;67.14
65718;BME280;52445;52.466;-1.016;2023-04-08T06:16:09;101112.03;;;4.00;66.59
65718;BME280;52445;52.466;-1.016;2023-04-08T06:18:36;101115.53;;;4.02;66.63
65718;BME280;52445;52.466;-1.016;2023-04-08T06:21:03;101119.41;;;4.14;66.64
65718;BME280;52445;52.466;-1.016;2023-04-08T06:23:29;101121.50;;;4.22;66.59
65718;BME280;52445;52.466;-1.016;2023-04-08T06:25:56;101115.78;;;4.30;66.11
65718;BME280;52445;52.466;-1.016;2023-04-08T06:28:23;101115.28;;;4.39;66.43
65718;BME280;52445;52.466;-1.016;2023-04-08T06:30:50;101119.78;;;4.44;66.82
65718;BME280;52445;52.466;-1.016;2023-04-08T06:33:17;101114.81;;;4.49;66.55
65718;BME280;52445;52.466;-1.016;2023-04-08T06:35:43;101121.16;;;4.57;66.72
65718;BME280;52445;52.466;-1.016;2023-04-08T06:38:10;101128.25;;;4.65;66.54
65718;BME280;52445;52.466;-1.016;2023-04-08T06:40:38;101134.59;;;4.73;66.89
65718;BME280;52445;52.466;-1.016;2023-04-08T06:43:05;101127.94;;;4.78;66.63
65718;BME280;52445;52.466;-1.016;2023-04-08T06:45:33;101130.69;;;4.83;66.91
65718;BME280;52445;52.466;-1.016;2023-04-08T06:48:00;101129.22;;;4.89;67.22
65718;BME280;52445;52.466;-1.016;2023-04-08T06:50:27;101126.84;;;4.94;67.06
65718;BME280;52445;52.466;-1.016;2023-04-08T06:52:54;101129.69;;;5.02;67.25
65718;BME280;52445;52.466;-1.016;2023-04-08T06:55:20;101133.28;;;5.07;67.06
65718;BME280;52445;52.466;-1.016;2023-04-08T06:57:47;101128.31;;;5.12;66.99
65718;BME280;52445;52.466;-1.016;2023-04-08T07:00:13;101125.22;;;5.21;67.16
65718;BME280;52445;52.466;-1.016;2023-04-08T07:02:40;101132.34;;;5.28;67.03
65718;BME280;52445;52.466;-1.016;2023-04-08T07:05:07;101133.50;;;5.36;66.60
65718;BME280;52445;52.466;-1.016;2023-04-08T07:07:34;101140.56;;;5.42;67.05
65718;BME280;52445;52.466;-1.016;2023-04-08T07:10:01;101135.78;;;5.53;67.55
65718;BME280;52445;52.466;-1.016;2023-04-08T07:12:28;101135.59;;;5.73;67.41
65718;BME280;52445;52.466;-1.016;2023-04-08T07:14:54;101144.25;;;5.99;66.22
65718;BME280;52445;52.466;-1.016;2023-04-08T07:17:21;101140.81;;;6.25;67.23
65718;BME280;52445;52.466;-1.016;2023-04-08T07:19:48;101146.47;;;6.40;66.87
65718;BME280;52445;52.466;-1.016;2023-04-08T07:22:14;101145.28;;;6.58;67.31
65718;BME280;52445;52.466;-1.016;2023-04-08T07:24:41;101158.00;;;6.81;67.51
65718;BME280;52445;52.466;-1.016;2023-04-08T07:27:10;101151.28;;;7.15;67.42
65718;BME280;52445;52.466;-1.016;2023-04-08T07:29:37;101147.13;;;7.51;65.85
65718;BME280;52445;52.466;-1.016;2023-04-08T07:32:04;101149.81;;;7.88;66.82
65718;BME280;52445;52.466;-1.016;2023-04-08T07:34:30;101151.75;;;8.31;65.75
65718;BME280;52445;52.466;-1.016;2023-04-08T07:36:59;101152.00;;;8.79;66.05
65718;BME280;52445;52.466;-1.016;2023-04-08T07:39:26;101163.94;;;9.12;65.39
65718;BME280;52445;52.466;-1.016;2023-04-08T07:41:53;101162.00;;;9.45;64.89
65718;BME280;52445;52.466;-1.016;2023-04-08T07:44:20;101163.44;;;9.75;64.90
65718;BME280;52445;52.466;-1.016;2023-04-08T07:46:46;101162.34;;;10.10;64.01
65718;BME280;52445;52.466;-1.016;2023-04-08T07:49:16;101170.59;;;10.39;63.54
65718;BME280;52445;52.466;-1.016;2023-04-08T07:51:43;101178.69;;;10.58;62.88
65718;BME280;52445;52.466;-1.016;2023-04-08T07:54:10;101177.06;;;10.65;62.91
65718;BME280;52445;52.466;-1.016;2023-04-08T07:56:42;101185.50;;;10.54;63.44
65718;BME280;52445;52.466;-1.016;2023-04-08T07:59:10;101184.50;;;10.45;63.48
65718;BME280;52445;52.466;-1.016;2023-04-08T08:01:37;101182.44;;;10.25;62.54
65718;BME280;52445;52.466;-1.016;2023-04-08T08:04:03;101182.91;;;10.03;63.27
65718;BME280;52445;52.466;-1.016;2023-04-08T08:06:31;101183.44;;;9.84;62.91
65718;BME280;52445;52.466;-1.016;2023-04-08T08:08:58;101179.72;;;9.69;63.67
65718;BME280;52445;52.466;-1.016;2023-04-08T08:11:26;101177.75;;;9.56;64.21
65718;BME280;52445;52.466;-1.016;2023-04-08T08:13:53;101185.19;;;9.40;64.26
65718;BME280;52445;52.466;-1.016;2023-04-08T08:16:20;101193.72;;;9.36;64.41
65718;BME280;52445;52.466;-1.016;2023-04-08T08:18:47;101194.03;;;9.51;64.69
65718;BME280;52445;52.466;-1.016;2023-04-08T08:21:13;101196.38;;;9.84;64.73
65718;BME280;52445;52.466;-1.016;2023-04-08T08:23:40;101198.22;;;10.40;64.62
65718;BME280;52445;52.466;-1.016;2023-04-08T08:26:08;101199.69;;;10.78;64.38
65718;BME280;52445;52.466;-1.016;2023-04-08T08:28:36;101202.00;;;11.20;63.69
65718;BME280;52445;52.466;-1.016;2023-04-08T08:31:03;101210.91;;;11.41;63.38
65718;BME280;52445;52.466;-1.016;2023-04-08T08:33:31;101208.59;;;11.64;62.14
65718;BME280;52445;52.466;-1.016;2023-04-08T08:35:58;101211.59;;;12.00;62.12
65718;BME280;52445;52.466;-1.016;2023-04-08T08:38:26;101208.41;;;12.29;61.20
65718;BME280;52445;52.466;-1.016;2023-04-08T08:40:53;101210.28;;;12.46;60.99
65718;BME280;52445;52.466;-1.016;2023-04-08T08:43:22;101227.78;;;12.69;61.25
65718;BME280;52445;52.466;-1.016;2023-04-08T08:45:48;101224.38;;;12.76;59.78
65718;BME280;52445;52.466;-1.016;2023-04-08T08:48:15;101219.25;;;12.92;60.33
65718;BME280;52445;52.466;-1.016;2023-04-08T08:50:42;101216.63;;;12.89;60.44
65718;BME280;52445;52.466;-1.016;2023-04-08T08:53:09;101221.81;;;12.82;59.89
65718;BME280;52445;52.466;-1.016;2023-04-08T08:55:36;101219.13;;;12.70;59.92
65718;BME280;52445;52.466;-1.016;2023-04-08T08:58:26;101221.00;;;12.88;61.46
65718;BME280;52445;52.466;-1.016;2023-04-08T09:00:53;101222.00;;;13.12;61.17
65718;BME280;52445;52.466;-1.016;2023-04-08T09:03:26;101217.75;;;13.31;60.71
65718;BME280;52445;52.466;-1.016;2023-04-08T09:05:56;101219.47;;;13.26;60.36
65718;BME280;52445;52.466;-1.016;2023-04-08T09:08:32;101222.88;;;13.13;59.79
65718;BME280;52445;52.466;-1.016;2023-04-08T09:11:19;101214.94;;;12.91;60.36
65718;BME280;52445;52.466;-1.016;2023-04-08T09:13:47;101223.66;;;12.99;60.25
65718;BME280;52445;52.466;-1.016;2023-04-08T09:16:17;101216.78;;;13.12;61.16
65718;BME280;52445;52.466;-1.016;2023-04-08T09:18:45;101216.91;;;13.31;60.27
65718;BME280;52445;52.466;-1.016;2023-04-08T09:21:13;101219.59;;;13.54;61.19
65718;BME280;52445;52.466;-1.016;2023-04-08T09:23:49;101216.22;;;13.77;60.61
65718;BME280;52445;52.466;-1.016;2023-04-08T09:26:18;101217.09;;;13.81;59.94
65718;BME280;52445;52.466;-1.016;2023-04-08T09:31:35;101229.34;;;14.29;59.67
65718;BME280;52445;52.466;-1.016;2023-04-08T09:34:12;101223.25;;;14.44;58.99
65718;BME280;52445;52.466;-1.016;2023-04-08T09:36:40;101225.84;;;14.56;58.79
65718;BME280;52445;52.466;-1.016;2023-04-08T09:39:07;101231.97;;;14.80;57.80
65718;BME280;52445;52.466;-1.016;2023-04-08T09:41:34;101225.84;;;15.03;57.97
65718;BME280;52445;52.466;-1.016;2023-04-08T09:44:04;101229.28;;;15.05;57.28
65718;BME280;52445;52.466;-1.016;2023-04-08T09:46:38;101222.31;;;15.15;57.00
65718;BME280;52445;52.466;-1.016;2023-04-08T09:54:51;101222.25;;;15.34;55.63
65718;BME280;52445;52.466;-1.016;2023-04-08T09:57:23;101219.56;;;15.54;55.62
65718;BME280;52445;52.466;-1.016;2023-04-08T10:00:02;101223.91;;;15.52;54.19
65718;BME280;52445;52.466;-1.016;2023-04-08T10:02:33;101222.19;;;15.55;54.55
65718;BME280;52445;52.466;-1.016;2023-04-08T10:05:06;101225.53;;;15.76;54.91
65718;BME280;52445;52.466;-1.016;2023-04-08T10:07:34;101221.97;;;15.93;55.07
65718;BME280;52445;52.466;-1.016;2023-04-08T10:10:01;101217.47;;;16.18;55.84
65718;BME280;52445;52.466;-1.016;2023-04-08T10:12:29;101211.31;;;16.27;54.27
65718;BME280;52445;52.466;-1.016;2023-04-08T10:15:26;101210.47;;;16.22;53.06
65718;BME280;52445;52.466;-1.016;2023-04-08T10:17:55;101209.69;;;16.12;52.95
65718;BME280;52445;52.466;-1.016;2023-04-08T10:23:15;101213.09;;;16.22;53.23
65718;BME280;52445;52.466;-1.016;2023-04-08T10:30:55;101211.56;;;15.87;52.21
65718;BME280;52445;52.466;-1.016;2023-04-08T10:33:31;101205.41;;;15.94;53.34
65718;BME280;52445;52.466;-1.016;2023-04-08T10:36:16;101207.19;;;15.97;50.83
65718;BME280;52445;52.466;-1.016;2023-04-08T10:38:43;101208.00;;;16.05;51.76
65718;BME280;52445;52.466;-1.016;2023-04-08T10:41:10;101214.00;;;16.16;52.30
65718;BME280;52445;52.466;-1.016;2023-04-08T10:43:39;101210.47;;;16.24;51.61
65718;BME280;52445;52.466;-1.016;2023-04-08T10:46:09;101218.25;;;16.28;51.57
65718;BME280;52445;52.466;-1.016;2023-04-08T10:48:37;101214.69;;;16.42;52.91
65718;BME280;52445;52.466;-1.016;2023-04-08T10:51:04;101210.22;;;16.55;51.59
65718;BME280;52445;52.466;-1.016;2023-04-08T10:56:11;101212.53;;;16.85;51.22
65718;BME280;52445;52.466;-1.016;2023-04-08T11:01:25;101205.38;;;17.05;51.10
65718;BME280;52445;52.466;-1.016;2023-04-08T11:03:53;101206.28;;;16.96;48.86
65718;BME280;52445;52.466;-1.016;2023-04-08T11:06:20;101208.06;;;16.98;49.61
65718;BME280;52445;52.466;-1.016;2023-04-08T11:08:46;101211.41;;;17.11;49.87
65718;BME280;52445;52.466;-1.016;2023-04-08T11:11:13;101200.91;;;17.12;49.57
65718;BME280;52445;52.466;-1.016;2023-04-08T11:13:43;101203.63;;;17.06;49.04
65718;BME280;52445;52.466;-1.016;2023-04-08T11:16:20;101193.19;;;16.98;48.58
65718;BME280;52445;52.466;-1.016;2023-04-08T11:18:47;101195.16;;;16.77;49.30
65718;BME280;52445;52.466;-1.016;2023-04-08T11:21:15;101200.53;;;16.66;48.62
65718;BME280;52445;52.466;-1.016;2023-04-08T11:23:42;101187.47;;;16.63;49.27
65718;BME280;52445;52.466;-1.016;2023-04-08T11:26:09;101182.97;;;16.76;49.52
65718;BME280;52445;52.466;-1.016;2023-04-08T11:28:36;101187.13;;;16.96;49.79
65718;BME280;52445;52.466;-1.016;2023-04-08T11:31:03;101183.53;;;17.08;49.37
65718;BME280;52445;52.466;-1.016;2023-04-08T11:33:31;101192.16;;;17.16;48.94
65718;BME280;52445;52.466;-1.016;2023-04-08T11:36:00;101179.94;;;17.15;48.58
65718;BME280;52445;52.466;-1.016;2023-04-08T11:38:27;101188.66;;;17.17;48.28
65718;BME280;52445;52.466;-1.016;2023-04-08T11:40:57;101185.00;;;17.31;48.31
65718;BME280;52445;52.466;-1.016;2023-04-08T11:43:24;101178.50;;;17.62;49.10
65718;BME280;52445;52.466;-1.016;2023-04-08T11:45:52;101172.97;;;17.80;48.39
65718;BME280;52445;52.466;-1.016;2023-04-08T11:48:19;101181.78;;;17.75;46.60
65718;BME280;52445;52.466;-1.016;2023-04-08T11:50:45;101179.09;;;17.79;48.10
65718;BME280;52445;52.466;-1.016;2023-04-08T11:55:53;101175.38;;;17.94;46.34
65718;BME280;52445;52.466;-1.016;2023-04-08T11:58:19;101178.84;;;17.96;46.06
65718;BME280;52445;52.466;-1.016;2023-04-08T12:00:46;101180.31;;;18.16;46.67
65718;BME280;52445;52.466;-1.016;2023-04-08T12:03:12;101164.38;;;18.29;46.00
65718;BME280;52445;52.466;-1.016;2023-04-08T12:05:39;101173.16;;;18.26;45.27
65718;BME280;52445;52.466;-1.016;2023-04-08T12:08:06;101170.28;;;17.85;44.46
65718;BME280;52445;52.466;-1.016;2023-04-08T12:10:33;101171.31;;;17.73;44.16
65718;BME280;52445;52.466;-1.016;2023-04-08T12:12:59;101170.59;;;17.63;44.20
65718;BME280;52445;52.466;-1.016;2023-04-08T12:15:26;101170.56;;;17.66;44.31
65718;BME280;52445;52.466;-1.016;2023-04-08T12:17:52;101170.59;;;17.63;42.43
65718;BME280;52445;52.466;-1.016;2023-04-08T12:20:19;101175.91;;;17.60;42.76
65718;BME280;52445;52.466;-1.016;2023-04-08T12:22:46;101170.59;;;17.63;42.40
65718;BME280;52445;52.466;-1.016;2023-04-08T12:25:13;101169.09;;;17.46;42.84
65718;BME280;52445;52.466;-1.016;2023-04-08T12:27:39;101163.81;;;17.48;43.15
65718;BME280;52445;52.466;-1.016;2023-04-08T12:30:06;101169.03;;;17.50;43.57
65718;BME280;52445;52.466;-1.016;2023-04-08T12:32:33;101169.66;;;17.67;43.84
65718;BME280;52445;52.466;-1.016;2023-04-08T12:35:00;101166.78;;;17.86;43.88
65718;BME280;52445;52.466;-1.016;2023-04-08T12:37:26;101166.47;;;17.45;42.36
65718;BME280;52445;52.466;-1.016;2023-04-08T12:39:54;101167.63;;;17.25;42.73
65718;BME280;52445;52.466;-1.016;2023-04-08T12:42:20;101175.72;;;17.03;43.09
65718;BME280;52445;52.466;-1.016;2023-04-08T12:44:47;101175.81;;;16.92;42.74
65718;BME280;52445;52.466;-1.016;2023-04-08T12:47:13;101173.22;;;16.89;44.10
65718;BME280;52445;52.466;-1.016;2023-04-08T12:49:40;101169.69;;;16.93;43.69
65718;BME280;52445;52.466;-1.016;2023-04-08T12:52:09;101171.34;;;17.01;44.21
65718;BME280;52445;52.466;-1.016;2023-04-08T12:54:36;101173.97;;;17.02;43.17
65718;BME280;52445;52.466;-1.016;2023-04-08T12:57:03;101169.59;;;17.06;43.50
65718;BME280;52445;52.466;-1.016;2023-04-08T12:59:29;101165.16;;;17.13;43.66
65718;BME280;52445;52.466;-1.016;2023-04-08T13:01:57;101165.94;;;17.19;43.58
65718;BME280;52445;52.466;-1.016;2023-04-08T13:04:24;101162.31;;;17.30;43.23
65718;BME280;52445;52.466;-1.016;2023-04-08T13:06:50;101159.59;;;17.36;42.83
65718;BME280;52445;52.466;-1.016;2023-04-08T13:09:17;101165.94;;;17.19;43.65
65718;BME280;52445;52.466;-1.016;2023-04-08T13:11:44;101162.44;;;17.20;42.85
65718;BME280;52445;52.466;-1.016;2023-04-08T13:14:11;101159.84;;;17.19;43.25
65718;BME280;52445;52.466;-1.016;2023-04-08T13:16:39;101169.59;;;17.06;42.68
65718;BME280;52445;52.466;-1.016;2023-04-08T13:19:05;101162.72;;;16.92;42.99